Time;durP1;ratioP1;P1;durP2;ratioP2;P2;SDS_P1;SDS_P2;PMS_P1;PMS_P2;Temp;Humidity;BMP_temperature;BMP_pressure;BME280_temperature;BME280_humidity;BME280_pressure;Samples;Min_cycle;Max_cycle;Signal;HPM_P1;HPM_P2
2023/05/19 00:01:42;;;;;;;4.65;0.50;;;;;;;11.61;68.91;102103.41;4955453;28;20035;-66
2023/05/19 00:04:11;;;;;;;1.02;0.68;;;;;;;11.62;69.17;102088.78;4950377;29;20463;-65
2023/05/19 00:06:37;;;;;;;1.65;0.50;;;;;;;11.66;68.12;102098.66;4964665;28;20121;-66
2023/05/19 00:09:05;;;;;;;0.63;0.35;;;;;;;11.64;68.03;102100.03;4955134;28;20105;-67
2023/05/19 00:11:36;;;;;;;0.30;0.30;;;;;;;11.61;68.26;102098.00;4972975;28;20380;-66
2023/05/19 00:14:04;;;;;;;1.35;0.60;;;;;;;11.56;68.70;102101.69;4970250;28;20117;-64
2023/05/19 00:16:30;;;;;;;0.38;0.38;;;;;;;11.62;68.29;102104.97;4969536;28;20106;-65
2023/05/19 00:19:01;;;;;;;0.80;0.50;;;;;;;11.79;68.49;102099.50;4955311;28;20042;-65
2023/05/19 00:21:31;;;;;;;0.73;0.68;;;;;;;11.65;68.46;102107.03;4965792;28;20030;-66
2023/05/19 00:23:57;;;;;;;0.80;0.60;;;;;;;11.72;68.44;102101.94;4961606;28;20050;-65
2023/05/19 00:26:23;;;;;;;0.30;0.30;;;;;;;11.61;68.81;102108.81;4969614;28;20027;-65
2023/05/19 00:29:00;;;;;;;0.38;0.30;;;;;;;11.46;69.65;102103.94;4937085;28;20054;-66
2023/05/19 00:31:26;;;;;;;0.60;0.60;;;;;;;11.42;69.63;102103.03;4951109;28;20038;-65
2023/05/19 00:33:51;;;;;;;0.35;0.35;;;;;;;11.32;70.04;102103.38;4959135;28;20031;-66
2023/05/19 00:36:37;;;;;;;0.40;0.40;;;;;;;11.28;70.08;102099.75;4945065;28;20045;-65
2023/05/19 00:39:02;;;;;;;1.33;0.75;;;;;;;11.29;70.38;102098.63;4908424;29;20040;-65
2023/05/19 00:41:28;;;;;;;1.27;0.45;;;;;;;11.33;70.17;102100.34;4895044;29;20050;-66
2023/05/19 00:43:57;;;;;;;0.77;0.50;;;;;;;11.28;70.52;102102.44;4909928;29;20421;-66
2023/05/19 00:46:23;;;;;;;0.50;0.50;;;;;;;11.23;70.86;102099.91;4906242;29;20492;-66
2023/05/19 00:48:49;;;;;;;1.38;0.47;;;;;;;11.18;71.89;102095.50;4890836;29;20524;-64
2023/05/19 00:51:15;;;;;;;0.80;0.40;;;;;;;11.13;72.02;102097.59;4911581;29;20088;-65
2023/05/19 00:53:42;;;;;;;0.73;0.43;;;;;;;11.00;72.47;102102.06;4894984;29;20036;-66
2023/05/19 00:56:08;;;;;;;0.50;0.50;;;;;;;10.90;72.52;102097.81;4909908;29;20096;-66
2023/05/19 00:58:35;;;;;;;2.38;0.70;;;;;;;10.94;73.16;102102.56;4909900;29;20051;-65
2023/05/19 01:01:02;;;;;;;0.70;0.60;;;;;;;10.97;73.28;102100.00;4876275;29;20036;-65
2023/05/19 01:03:33;;;;;;;0.52;0.45;;;;;;;10.99;72.16;102099.69;4911147;29;20047;-65
2023/05/19 01:06:06;;;;;;;0.50;0.43;;;;;;;10.98;72.50;102087.31;4905679;29;20048;-66
2023/05/19 01:08:32;;;;;;;0.73;0.50;;;;;;;10.92;72.84;102096.69;4889604;29;20672;-66
2023/05/19 01:10:58;;;;;;;0.82;0.55;;;;;;;10.97;72.76;102089.22;4908721;29;20075;-65
2023/05/19 01:13:24;;;;;;;1.00;0.80;;;;;;;10.99;73.07;102095.09;4912048;29;20117;-65
2023/05/19 01:16:17;;;;;;;1.30;0.55;;;;;;;11.06;72.62;102090.00;4928237;28;20622;-65
2023/05/19 01:18:46;;;;;;;1.13;0.70;;;;;;;11.07;72.22;102090.78;4949446;28;20841;-65
2023/05/19 01:21:37;;;;;;;0.47;0.47;;;;;;;11.11;71.82;102089.03;4966409;28;20360;-65
2023/05/19 01:24:33;;;;;;;0.43;0.43;;;;;;;11.04;72.48;102094.91;4928350;28;20496;-66
2023/05/19 01:27:22;;;;;;;1.67;0.50;;;;;;;11.28;71.67;102091.66;4948555;28;20134;-65
2023/05/19 01:30:10;;;;;;;0.55;0.55;;;;;;;11.40;70.12;102094.47;4950238;28;20031;-65
2023/05/19 01:32:40;;;;;;;0.20;0.20;;;;;;;11.41;70.66;102086.06;4966883;28;20392;-66
2023/05/19 01:35:08;;;;;;;0.20;0.20;;;;;;;11.32;70.49;102098.00;4953842;28;20384;-66
2023/05/19 01:37:35;;;;;;;3.40;0.80;;;;;;;11.10;72.07;102104.41;4966948;28;20037;-66
2023/05/19 01:40:01;;;;;;;0.70;0.50;;;;;;;11.20;71.95;102100.56;4950749;28;20050;-66
2023/05/19 01:42:28;;;;;;;0.85;0.60;;;;;;;11.16;71.99;102099.63;4950011;28;20045;-66
2023/05/19 01:44:54;;;;;;;6.32;0.82;;;;;;;11.20;71.75;102100.56;4967664;28;20066;-65
2023/05/19 01:47:21;;;;;;;0.35;0.35;;;;;;;11.17;72.34;102101.22;4953024;28;20431;-66
2023/05/19 01:49:46;;;;;;;0.40;0.40;;;;;;;11.15;72.07;102106.16;4971049;28;20045;-65
2023/05/19 01:52:12;;;;;;;0.85;0.52;;;;;;;10.99;72.80;102111.25;4970339;28;20446;-65
2023/05/19 01:54:37;;;;;;;6.88;0.68;;;;;;;11.12;72.20;102114.88;4953086;28;20035;-67
2023/05/19 01:57:14;;;;;;;0.40;0.40;;;;;;;11.26;71.87;102110.06;4964800;28;20070;-66
2023/05/19 01:59:49;;;;;;;3.25;0.43;;;;;;;11.14;73.04;102110.75;4934907;28;20081;-65
2023/05/19 02:02:35;;;;;;;1.20;0.85;;;;;;;11.08;73.81;102113.91;4971004;28;20451;-66
2023/05/19 02:05:28;;;;;;;0.80;0.55;;;;;;;11.01;73.73;102113.63;4974646;28;20031;-66
2023/05/19 02:08:13;;;;;;;0.75;0.63;;;;;;;11.02;73.71;102107.13;4971293;28;20062;-66
2023/05/19 02:10:44;;;;;;;0.38;0.38;;;;;;;11.13;73.79;102111.06;4970359;28;20031;-66
2023/05/19 02:13:12;;;;;;;;;;;;;;;11.23;73.56;102111.50;4956368;28;20509;-66
2023/05/19 02:15:43;;;;;;;1.27;0.60;;;;;;;11.25;73.50;102111.16;4952849;28;20397;-65
2023/05/19 02:18:10;;;;;;;;;;;;;;;11.31;74.15;102101.78;4967005;28;20033;-67
2023/05/19 02:20:37;;;;;;;0.20;0.20;;;;;;;11.37;72.85;102111.28;4956305;28;19913;-66
2023/05/19 02:23:05;;;;;;;0.40;0.40;;;;;;;11.26;73.82;102105.47;4953019;28;20030;-67
2023/05/19 02:25:31;;;;;;;0.85;0.55;;;;;;;11.25;73.13;102111.16;4953153;28;20027;-68
2023/05/19 02:27:58;;;;;;;0.70;0.70;;;;;;;11.39;73.25;102100.97;4968686;28;20031;-67
2023/05/19 02:30:23;;;;;;;0.75;0.63;;;;;;;11.29;73.40;102112.09;4954365;28;20039;-66
2023/05/19 02:32:49;;;;;;;0.50;0.50;;;;;;;11.31;73.71;102099.88;4974276;28;20566;-66
2023/05/19 02:35:14;;;;;;;0.50;0.50;;;;;;;11.20;74.23;102106.75;4936166;28;20053;-66
2023/05/19 02:37:40;;;;;;;0.77;0.60;;;;;;;11.12;75.23;102107.56;4934748;28;20045;-69
2023/05/19 02:40:06;;;;;;;5.18;0.68;;;;;;;11.15;75.31;102098.06;4967674;28;20031;-66
2023/05/19 02:42:32;;;;;;;1.08;0.80;;;;;;;11.22;74.51;102104.53;4956685;28;20093;-66
2023/05/19 02:44:59;;;;;;;1.40;0.63;;;;;;;11.08;74.89;102103.13;4956340;28;20031;-67
2023/05/19 02:47:25;;;;;;;0.88;0.40;;;;;;;11.07;75.46;102104.25;4948287;28;20109;-66
2023/05/19 02:49:50;;;;;;;0.80;0.80;;;;;;;10.96;76.21;102097.63;4968016;28;20044;-66
2023/05/19 02:52:16;;;;;;;0.47;0.30;;;;;;;10.83;76.66;102094.00;4956276;28;20034;-69
2023/05/19 02:54:41;;;;;;;4.88;0.40;;;;;;;10.85;77.18;102083.72;4967872;28;20126;-66
2023/05/19 02:57:07;;;;;;;3.47;0.73;;;;;;;10.92;76.46;102088.63;4955666;28;20062;-65
2023/05/19 02:59:32;;;;;;;0.73;0.40;;;;;;;10.88;77.00;102088.44;4954667;28;20034;-69
2023/05/19 03:01:59;;;;;;;0.80;0.60;;;;;;;10.88;76.87;102089.25;4968945;28;20035;-66
2023/05/19 03:04:26;;;;;;;0.35;0.35;;;;;;;10.97;77.17;102091.94;4955516;28;20023;-66
2023/05/19 03:06:52;;;;;;;1.02;0.75;;;;;;;10.97;76.57;102085.75;4972993;28;20084;-66
2023/05/19 03:09:19;;;;;;;0.40;0.30;;;;;;;11.01;77.27;102075.91;4946111;28;20075;-66
2023/05/19 03:11:44;;;;;;;0.65;0.60;;;;;;;11.03;76.81;102073.66;4966687;28;20038;-68
2023/05/19 03:14:13;;;;;;;1.20;0.40;;;;;;;11.06;76.76;102086.50;4956006;28;20081;-65
2023/05/19 03:16:42;;;;;;;0.93;0.60;;;;;;;11.14;77.22;102086.47;4955645;28;20043;-66
2023/05/19 03:19:08;;;;;;;0.55;0.52;;;;;;;11.10;77.04;102084.75;4952868;28;20034;-65
2023/05/19 03:21:33;;;;;;;0.90;0.88;;;;;;;11.02;76.85;102080.97;4968631;28;20031;-66
2023/05/19 03:24:00;;;;;;;0.43;0.38;;;;;;;10.99;77.43;102086.22;4949739;28;20034;-65
2023/05/19 03:26:25;;;;;;;0.30;0.30;;;;;;;11.00;77.31;102080.50;4955107;28;20156;-67
2023/05/19 03:28:51;;;;;;;1.08;0.73;;;;;;;11.15;76.88;102082.66;4955385;28;20062;-66
2023/05/19 03:31:17;;;;;;;0.50;0.43;;;;;;;11.12;77.05;102079.81;4955368;28;20522;-66
2023/05/19 03:33:42;;;;;;;0.63;0.32;;;;;;;11.05;77.43;102083.03;4955673;28;20105;-65
2023/05/19 03:36:08;;;;;;;0.40;0.40;;;;;;;11.12;76.99;102083.31;4953393;28;20023;-65
2023/05/19 03:38:37;;;;;;;1.35;0.82;;;;;;;11.29;76.20;102083.25;4970888;28;20034;-66
2023/05/19 03:41:03;;;;;;;0.30;0.30;;;;;;;11.29;75.90;102077.03;4969508;28;20027;-65
2023/05/19 03:43:29;;;;;;;0.57;0.57;;;;;;;11.28;76.12;102076.28;4971281;28;20027;-66
2023/05/19 03:45:59;;;;;;;1.15;0.60;;;;;;;11.19;76.02;102088.22;4954701;28;20035;-65
2023/05/19 03:48:56;;;;;;;0.63;0.55;;;;;;;11.16;76.71;102073.47;4929832;28;20076;-66
2023/05/19 03:51:51;;;;;;;0.40;0.40;;;;;;;11.23;76.22;102078.34;4964525;28;20046;-68
2023/05/19 03:54:27;;;;;;;0.70;0.70;;;;;;;11.25;76.34;102081.50;4954922;28;20105;-65
2023/05/19 03:56:52;;;;;;;0.32;0.32;;;;;;;11.10;76.93;102085.53;4954211;28;20532;-64
2023/05/19 03:59:17;;;;;;;0.60;0.60;;;;;;;10.88;78.28;102083.84;4937403;28;20037;-65
2023/05/19 04:01:43;;;;;;;1.20;0.65;;;;;;;10.74;78.51;102085.94;4950767;28;20354;-66
2023/05/19 04:04:08;;;;;;;0.95;0.50;;;;;;;10.88;78.98;102093.84;4949095;29;20090;-66
2023/05/19 04:06:35;;;;;;;4.47;0.73;;;;;;;11.06;78.11;102089.19;4946931;28;20053;-66
2023/05/19 04:09:01;;;;;;;0.95;0.57;;;;;;;11.16;78.53;102096.94;4935224;28;20097;-66
2023/05/19 04:11:26;;;;;;;0.40;0.40;;;;;;;11.20;77.70;102095.19;4964823;28;20146;-65
2023/05/19 04:13:52;;;;;;;0.47;0.45;;;;;;;11.09;78.40;102094.72;4971821;28;20516;-66
2023/05/19 04:16:17;;;;;;;3.03;0.63;;;;;;;11.19;78.55;102097.06;4947377;28;20410;-65
2023/05/19 04:18:44;;;;;;;0.90;0.63;;;;;;;11.24;77.42;102102.31;4948424;28;20039;-65
2023/05/19 04:21:10;;;;;;;1.45;0.85;;;;;;;11.21;77.97;102102.13;4969241;28;20031;-65
2023/05/19 04:23:37;;;;;;;0.85;0.57;;;;;;;11.24;77.66;102106.91;4963320;28;20085;-66
2023/05/19 04:26:05;;;;;;;0.40;0.40;;;;;;;11.38;77.71;102102.88;4970298;23;20442;-66
2023/05/19 04:28:32;;;;;;;0.80;0.63;;;;;;;11.35;77.87;102103.53;4980603;28;20403;-67
2023/05/19 04:30:58;;;;;;;2.50;0.85;;;;;;;11.39;77.91;102100.97;4984365;28;20037;-66
2023/05/19 04:33:24;;;;;;;0.57;0.50;;;;;;;11.49;77.96;102106.81;4983507;28;20026;-66
2023/05/19 04:35:50;;;;;;;0.50;0.50;;;;;;;11.59;77.56;102105.63;4960806;28;20054;-66
2023/05/19 04:38:17;;;;;;;0.60;0.60;;;;;;;11.46;77.54;102110.13;4969079;28;20022;-66
2023/05/19 04:40:44;;;;;;;1.08;0.55;;;;;;;11.56;77.90;102109.78;4952446;28;20041;-66
2023/05/19 04:43:10;;;;;;;0.40;0.40;;;;;;;11.60;77.29;102105.31;4970946;28;20047;-66
2023/05/19 04:45:36;;;;;;;0.73;0.50;;;;;;;11.55;77.36;102112.81;4949128;28;20031;-65
2023/05/19 04:48:03;;;;;;;0.85;0.60;;;;;;;11.68;77.51;102107.22;4951350;28;20031;-66
2023/05/19 04:50:31;;;;;;;1.75;0.60;;;;;;;11.73;77.27;102109.72;4954098;28;20031;-66
2023/05/19 04:52:58;;;;;;;0.50;0.50;;;;;;;11.87;77.11;102114.88;4965766;28;20400;-66
2023/05/19 04:55:24;;;;;;;1.50;0.73;;;;;;;11.82;76.83;102108.88;4933057;28;20117;-66
2023/05/19 04:57:49;;;;;;;1.20;0.63;;;;;;;11.70;77.26;102109.56;4946274;28;20121;-67
2023/05/19 05:00:15;;;;;;;1.15;0.60;;;;;;;11.83;77.02;102107.78;4964262;28;20058;-65
2023/05/19 05:02:56;;;;;;;0.95;0.95;;;;;;;11.87;77.18;102114.06;4962192;28;20122;-66
2023/05/19 05:05:22;;;;;;;0.65;0.65;;;;;;;11.94;76.12;102109.75;4953717;28;20072;-65
2023/05/19 05:07:49;;;;;;;1.05;0.70;;;;;;;12.03;75.73;102112.38;4945566;28;20038;-66
2023/05/19 05:10:15;;;;;;;0.63;0.45;;;;;;;12.04;75.55;102112.03;4937772;28;20081;-66
2023/05/19 05:12:41;;;;;;;0.50;0.50;;;;;;;12.02;75.96;102117.00;4970103;28;20487;-66
2023/05/19 05:15:10;;;;;;;0.47;0.47;;;;;;;11.99;76.97;102106.84;4970480;28;20403;-66
2023/05/19 05:17:37;;;;;;;0.50;0.50;;;;;;;12.16;76.96;102114.81;4952500;28;20058;-67
2023/05/19 05:20:05;;;;;;;0.65;0.43;;;;;;;12.31;76.94;102114.22;4951039;28;20019;-66
2023/05/19 05:22:31;;;;;;;0.75;0.65;;;;;;;12.37;75.93;102117.53;4947562;28;20038;-67
2023/05/19 05:24:56;;;;;;;0.57;0.43;;;;;;;12.45;75.62;102117.47;4968652;28;20038;-66
2023/05/19 05:27:23;;;;;;;1.27;0.80;;;;;;;12.58;75.10;102121.03;4953079;28;20022;-67
2023/05/19 05:29:48;;;;;;;1.05;0.50;;;;;;;12.67;75.54;102117.13;4944226;28;20031;-66
2023/05/19 05:32:15;;;;;;;0.63;0.50;;;;;;;12.83;74.89;102116.50;4952698;28;20085;-66
2023/05/19 05:34:42;;;;;;;0.50;0.50;;;;;;;12.68;74.34;102113.28;4970601;28;20038;-66
2023/05/19 05:37:07;;;;;;;0.90;0.55;;;;;;;12.80;73.58;102112.53;4951861;28;20034;-66
2023/05/19 05:39:34;;;;;;;0.10;0.10;;;;;;;12.84;73.52;102115.34;4953781;28;20031;-66
2023/05/19 05:42:00;;;;;;;0.85;0.35;;;;;;;12.68;74.57;102115.19;4956341;28;20035;-66
2023/05/19 05:44:26;;;;;;;0.30;0.20;;;;;;;12.81;74.64;102113.31;4952333;28;20109;-66
2023/05/19 05:46:53;;;;;;;2.00;0.30;;;;;;;12.86;72.99;102121.22;4956227;28;20027;-67
2023/05/19 05:49:19;;;;;;;0.32;0.32;;;;;;;12.93;72.96;102121.47;4957601;28;20031;-66
2023/05/19 05:51:48;;;;;;;0.70;0.70;;;;;;;12.96;73.93;102116.19;4954497;28;20023;-67
2023/05/19 05:54:15;;;;;;;0.40;0.40;;;;;;;12.89;73.94;102109.75;4970445;28;20400;-67
2023/05/19 05:56:44;;;;;;;0.63;0.63;;;;;;;13.10;73.05;102116.72;4953614;28;20050;-66
2023/05/19 05:59:10;;;;;;;5.03;0.43;;;;;;;13.29;73.05;102118.88;4957050;28;20035;-66
2023/05/19 06:01:36;;;;;;;0.85;0.52;;;;;;;13.37;71.45;102124.19;4949378;28;20624;-66
2023/05/19 06:04:03;;;;;;;5.88;0.30;;;;;;;13.62;71.38;102124.97;4949930;28;20011;-67
2023/05/19 06:06:30;;;;;;;0.63;0.63;;;;;;;13.73;70.95;102128.00;4957825;28;20114;-66
2023/05/19 06:08:55;;;;;;;0.57;0.40;;;;;;;13.77;69.15;102116.16;4956012;28;20031;-66
2023/05/19 06:11:23;;;;;;;1.95;0.43;;;;;;;13.92;68.93;102130.91;4953807;28;20422;-66
2023/05/19 06:13:49;;;;;;;0.52;0.52;;;;;;;14.16;68.22;102137.13;4960241;28;20065;-65
2023/05/19 06:16:31;;;;;;;1.67;0.55;;;;;;;14.24;66.89;102133.47;4958447;28;20499;-67
2023/05/19 06:18:57;;;;;;;2.00;0.50;;;;;;;14.51;67.60;102133.88;4957043;28;20031;-67
2023/05/19 06:21:23;;;;;;;1.13;0.40;;;;;;;14.65;65.98;102137.00;4975777;28;20061;-66
2023/05/19 06:23:48;;;;;;;0.40;0.40;;;;;;;14.87;66.57;102139.13;4954828;28;20026;-66
2023/05/19 06:26:14;;;;;;;0.40;0.40;;;;;;;15.14;63.97;102139.09;4956834;28;20034;-66
2023/05/19 06:28:40;;;;;;;1.23;0.52;;;;;;;15.26;62.19;102135.50;4970601;28;20121;-66
2023/05/19 06:31:05;;;;;;;0.57;0.40;;;;;;;15.38;60.83;102138.94;4962770;28;20163;-67
2023/05/19 06:33:57;;;;;;;0.32;0.30;;;;;;;15.39;61.11;102131.56;4959047;28;20031;-67
2023/05/19 06:36:23;;;;;;;0.50;0.50;;;;;;;15.36;60.97;102132.28;4955622;28;20061;-67
2023/05/19 06:38:51;;;;;;;0.47;0.30;;;;;;;15.43;60.78;102132.47;4956400;28;20034;-67
2023/05/19 06:41:17;;;;;;;1.25;0.30;;;;;;;15.52;61.20;102140.47;4956194;28;20081;-66
2023/05/19 06:43:45;;;;;;;0.30;0.30;;;;;;;15.53;60.09;102142.81;4955339;28;20038;-66
2023/05/19 06:46:16;;;;;;;0.17;0.17;;;;;;;15.59;60.27;102130.56;4971450;28;20081;-66
2023/05/19 06:48:42;;;;;;;0.70;0.32;;;;;;;15.68;59.79;102138.53;4941657;28;20330;-67
2023/05/19 06:51:09;;;;;;;0.20;0.20;;;;;;;15.80;60.04;102133.75;4952432;28;20074;-67
2023/05/19 06:53:35;;;;;;;0.30;0.30;;;;;;;15.81;60.11;102135.34;4952781;28;20054;-67
2023/05/19 06:56:08;;;;;;;2.20;0.40;;;;;;;16.07;59.94;102121.16;4955798;28;20064;-67
2023/05/19 06:58:38;;;;;;;0.22;0.15;;;;;;;16.31;60.18;102120.13;4955911;28;20035;-67
2023/05/19 07:01:04;;;;;;;0.30;0.30;;;;;;;16.47;59.75;102129.00;4951368;28;20026;-67
2023/05/19 07:03:35;;;;;;;1.10;0.57;;;;;;;16.57;59.01;102128.47;4955307;28;20023;-66
2023/05/19 07:06:02;;;;;;;1.02;0.32;;;;;;;16.40;57.25;102131.56;4956019;28;20047;-67
2023/05/19 07:08:28;;;;;;;1.48;0.30;;;;;;;16.51;58.22;102127.19;4960667;28;20042;-67
2023/05/19 07:10:54;;;;;;;0.20;0.20;;;;;;;16.65;58.51;102133.66;4948945;28;20456;-68
2023/05/19 07:13:20;;;;;;;0.20;0.20;;;;;;;16.47;58.13;102132.53;4954875;28;20019;-67
2023/05/19 07:15:47;;;;;;;1.02;0.22;;;;;;;16.51;58.03;102133.38;4939610;28;20049;-67
2023/05/19 07:18:15;;;;;;;0.20;0.10;;;;;;;16.69;58.30;102134.53;4953530;28;20033;-68
2023/05/19 07:20:40;;;;;;;0.17;0.13;;;;;;;16.92;58.15;102131.84;4950745;28;20031;-67
2023/05/19 07:23:06;;;;;;;0.60;0.25;;;;;;;16.98;57.38;102136.63;4970264;28;20412;-67
2023/05/19 07:25:32;;;;;;;0.30;0.30;;;;;;;17.08;56.86;102129.81;4954535;28;20031;-66
2023/05/19 07:27:58;;;;;;;0.43;0.22;;;;;;;17.34;57.36;102140.78;4949690;28;20399;-67
2023/05/19 07:30:27;;;;;;;0.30;0.30;;;;;;;17.56;56.19;102136.47;4964134;28;20109;-66
2023/05/19 07:32:52;;;;;;;0.50;0.13;;;;;;;17.81;56.48;102132.97;4970627;28;20030;-66
2023/05/19 07:35:19;;;;;;;0.52;0.50;;;;;;;18.00;55.24;102132.09;4972931;28;20046;-67
2023/05/19 07:37:44;;;;;;;0.82;0.30;;;;;;;18.26;53.59;102139.44;4968030;28;20035;-67
2023/05/19 07:40:10;;;;;;;0.17;0.15;;;;;;;18.62;54.71;102131.34;4969102;28;20031;-67
2023/05/19 07:42:35;;;;;;;0.30;0.30;;;;;;;18.71;51.70;102140.03;4972381;28;20046;-67
2023/05/19 07:45:02;;;;;;;3.20;0.88;;;;;;;18.98;52.42;102140.69;4963009;28;20126;-67
2023/05/19 07:47:28;;;;;;;1.67;0.65;;;;;;;19.16;52.07;102138.94;4954019;28;20045;-66
2023/05/19 07:49:53;;;;;;;0.35;0.20;;;;;;;19.40;52.92;102145.78;4951489;29;20046;-68
2023/05/19 07:52:19;;;;;;;0.45;0.20;;;;;;;19.57;52.27;102134.22;4946699;28;20073;-66
2023/05/19 07:54:44;;;;;;;1.77;0.40;;;;;;;19.72;51.59;102133.16;4953433;28;20034;-66
2023/05/19 07:57:10;;;;;;;0.30;0.30;;;;;;;19.92;51.58;102125.47;4944520;28;20108;-66
2023/05/19 07:59:35;;;;;;;0.55;0.15;;;;;;;20.13;50.67;102131.06;4953071;28;20055;-66
2023/05/19 08:02:01;;;;;;;3.55;0.95;;;;;;;20.14;48.98;102133.41;4964581;28;20099;-66
2023/05/19 08:04:26;;;;;;;0.50;0.30;;;;;;;20.02;48.80;102135.69;4964890;28;20075;-66
2023/05/19 08:06:52;;;;;;;2.20;0.30;;;;;;;20.16;48.83;102127.56;4953477;28;20110;-67
2023/05/19 08:09:18;;;;;;;1.60;0.38;;;;;;;20.25;48.87;102139.75;4968081;28;20058;-66
2023/05/19 08:11:45;;;;;;;0.47;0.32;;;;;;;20.00;47.92;102127.84;4953679;28;20090;-67
2023/05/19 08:14:11;;;;;;;0.10;0.10;;;;;;;20.12;48.23;102126.75;4962619;28;20123;-67
2023/05/19 08:16:37;;;;;;;0.10;0.00;;;;;;;20.10;48.41;102131.81;4953768;28;20038;-67
2023/05/19 08:19:04;;;;;;;0.20;0.15;;;;;;;20.34;47.96;102126.47;4972178;28;20526;-67
2023/05/19 08:21:33;;;;;;;0.70;0.28;;;;;;;20.57;47.92;102123.47;4972204;28;20411;-67
2023/05/19 08:24:00;;;;;;;0.55;0.50;;;;;;;20.65;46.74;102120.34;4953995;28;20077;-67
2023/05/19 08:26:26;;;;;;;0.30;0.20;;;;;;;20.61;47.00;102125.00;4971139;28;20537;-67
2023/05/19 08:28:51;;;;;;;0.25;0.25;;;;;;;20.72;47.05;102122.31;4960667;28;20039;-66
2023/05/19 08:31:17;;;;;;;1.10;0.40;;;;;;;20.90;46.58;102131.38;4950414;28;20027;-67
2023/05/19 08:33:43;;;;;;;0.38;0.38;;;;;;;21.02;46.31;102133.75;4966825;28;20041;-67
2023/05/19 08:36:08;;;;;;;0.20;0.20;;;;;;;20.96;44.51;102124.34;4953196;28;20161;-66
2023/05/19 08:38:34;;;;;;;1.23;0.35;;;;;;;20.63;44.51;102130.13;4971224;28;20035;-66
2023/05/19 08:41:00;;;;;;;0.13;0.13;;;;;;;20.57;44.39;102127.00;4966835;28;20178;-66
2023/05/19 08:43:26;;;;;;;0.20;0.20;;;;;;;20.75;44.93;102118.78;4964947;28;20035;-66
2023/05/19 08:45:52;;;;;;;0.45;0.30;;;;;;;20.76;44.85;102114.91;4953734;28;20038;-67
2023/05/19 08:48:18;;;;;;;0.30;0.30;;;;;;;20.65;45.30;102114.88;4964780;28;20125;-67
2023/05/19 08:51:04;;;;;;;0.52;0.10;;;;;;;20.95;46.34;102122.75;4969359;28;20109;-66
2023/05/19 08:53:38;;;;;;;0.85;0.20;;;;;;;21.08;44.52;102126.72;4936177;28;20085;-66
2023/05/19 08:56:10;;;;;;;0.15;0.15;;;;;;;20.96;43.85;102113.38;4941938;28;20051;-67
2023/05/19 08:58:38;;;;;;;0.13;0.10;;;;;;;21.28;45.57;102103.25;4968365;28;20045;-67
2023/05/19 09:01:04;;;;;;;0.05;0.05;;;;;;;21.30;44.20;102108.31;4967679;28;20826;-68
2023/05/19 09:03:36;;;;;;;0.60;0.40;;;;;;;21.37;45.57;102106.34;4964368;28;20042;-66
2023/05/19 09:06:05;;;;;;;0.85;0.30;;;;;;;21.46;45.73;102101.28;4949016;28;20550;-67
2023/05/19 09:08:30;;;;;;;0.10;0.05;;;;;;;21.67;43.09;102100.47;4969953;28;20027;-66
2023/05/19 09:10:55;;;;;;;0.45;0.30;;;;;;;21.87;42.69;102100.84;4961011;28;20046;-66
2023/05/19 09:13:21;;;;;;;0.90;0.43;;;;;;;21.87;42.39;102100.84;4961173;28;20257;-66
2023/05/19 09:15:49;;;;;;;0.75;0.68;;;;;;;21.83;42.96;102100.84;4960684;28;20049;-66
2023/05/19 09:18:14;;;;;;;0.20;0.20;;;;;;;21.68;41.56;102098.50;4949753;28;20043;-66
2023/05/19 09:20:42;;;;;;;0.95;0.30;;;;;;;21.91;42.81;102109.84;4971661;28;20046;-66
2023/05/19 09:23:15;;;;;;;0.35;0.22;;;;;;;22.00;42.63;102107.47;4947968;28;20034;-66
2023/05/19 09:25:51;;;;;;;0.75;0.10;;;;;;;22.02;43.32;102099.63;4966396;28;20114;-67
2023/05/19 09:28:29;;;;;;;0.47;0.30;;;;;;;21.95;43.75;102096.91;4970139;28;20058;-67
2023/05/19 09:30:59;;;;;;;0.30;0.20;;;;;;;21.71;44.40;102092.22;4965328;28;20037;-67
2023/05/19 09:33:24;;;;;;;0.28;0.28;;;;;;;21.81;43.75;102091.44;4958139;28;20082;-66
2023/05/19 09:35:50;;;;;;;0.35;0.10;;;;;;;21.84;43.84;102096.13;4949243;28;20085;-66
2023/05/19 09:38:18;;;;;;;5.00;0.30;;;;;;;21.96;43.80;102090.22;4964486;28;20066;-66
2023/05/19 09:40:44;;;;;;;1.17;0.25;;;;;;;22.04;44.11;102089.81;4963793;28;20049;-66
2023/05/19 09:43:10;;;;;;;0.32;0.20;;;;;;;22.05;43.76;102085.88;4955059;28;20031;-67
2023/05/19 09:45:35;;;;;;;0.25;0.10;;;;;;;22.13;43.50;102079.19;4960561;28;20845;-67
2023/05/19 09:48:04;;;;;;;0.73;0.30;;;;;;;22.19;42.27;102076.81;4961444;28;20675;-66
2023/05/19 09:50:31;;;;;;;2.95;0.20;;;;;;;22.14;42.42;102077.22;4949389;28;20039;-66
2023/05/19 09:52:57;;;;;;;0.32;0.20;;;;;;;22.20;41.70;102079.13;4963223;28;20074;-67
2023/05/19 09:55:25;;;;;;;0.10;0.05;;;;;;;22.28;41.15;102088.91;4960502;28;20399;-66
2023/05/19 09:57:54;;;;;;;0.88;0.30;;;;;;;22.25;41.78;102078.75;4968975;28;20091;-67
2023/05/19 10:00:21;;;;;;;1.55;0.38;;;;;;;22.33;41.74;102077.53;4963844;28;20499;-66
2023/05/19 10:02:47;;;;;;;0.88;0.20;;;;;;;22.46;42.35;102075.09;4960222;28;20043;-66
2023/05/19 10:05:18;;;;;;;0.32;0.20;;;;;;;22.84;41.08;102078.81;4964300;28;20031;-66
2023/05/19 10:07:51;;;;;;;0.20;0.20;;;;;;;22.92;41.24;102077.56;4964463;28;20121;-66
2023/05/19 10:10:20;;;;;;;0.65;0.20;;;;;;;23.10;40.05;102079.00;4970744;28;20074;-66
2023/05/19 10:12:49;;;;;;;0.85;0.40;;;;;;;23.19;40.53;102073.81;4959705;28;20639;-67
2023/05/19 10:15:19;;;;;;;0.28;0.20;;;;;;;23.51;40.15;102070.03;4969653;28;20038;-67
2023/05/19 10:17:44;;;;;;;1.05;0.77;;;;;;;23.67;39.68;102062.00;4969171;28;20130;-67
2023/05/19 10:20:15;;;;;;;0.55;0.55;;;;;;;23.64;40.34;102062.81;4964796;28;20117;-66
2023/05/19 10:22:41;;;;;;;0.32;0.20;;;;;;;23.81;38.84;102054.34;4955692;28;20693;-66
2023/05/19 10:25:09;;;;;;;0.52;0.30;;;;;;;23.78;39.02;102049.69;4967310;28;20039;-67
2023/05/19 10:27:56;;;;;;;0.60;0.20;;;;;;;23.98;38.44;102047.09;4962294;22;20494;-54
2023/05/19 10:30:33;;;;;;;0.47;0.25;;;;;;;24.11;39.04;102046.16;4911826;29;20051;-49
2023/05/19 10:33:01;;;;;;;0.52;0.15;;;;;;;24.13;37.88;102049.28;4919152;29;20257;-55
2023/05/19 10:35:48;;;;;;;0.63;0.10;;;;;;;24.24;37.17;102046.38;4911405;29;20063;-48
2023/05/19 10:38:27;;;;;;;0.47;0.28;;;;;;;23.54;38.39;102030.69;4908791;29;20070;-48
2023/05/19 10:41:11;;;;;;;0.20;0.20;;;;;;;23.77;38.57;102034.34;4913522;29;20507;-48
2023/05/19 10:44:08;;;;;;;0.20;0.10;;;;;;;24.25;38.67;102041.66;4905471;29;20068;-48
2023/05/19 10:46:34;;;;;;;1.92;0.63;;;;;;;24.31;37.61;102029.75;4896971;29;20052;-55
2023/05/19 10:48:59;;;;;;;0.32;0.20;;;;;;;24.29;38.01;102032.16;4913534;29;20099;-55
2023/05/19 10:51:32;;;;;;;0.45;0.20;;;;;;;24.62;38.60;102034.00;4913555;29;20523;-49
2023/05/19 10:54:01;;;;;;;0.45;0.20;;;;;;;24.90;38.46;102036.34;4910226;29;20095;-48
2023/05/19 10:56:33;;;;;;;1.05;0.30;;;;;;;25.11;39.20;102039.94;4905249;29;20061;-48
2023/05/19 10:59:00;;;;;;;0.00;0.00;;;;;;;25.17;37.50;102028.00;4907613;29;20053;-54
2023/05/19 11:01:33;;;;;;;0.05;0.05;;;;;;;25.40;38.12;102032.75;4913312;29;20051;-49
2023/05/19 11:04:13;;;;;;;1.05;0.10;;;;;;;25.46;37.99;102031.06;4913526;29;20037;-49
2023/05/19 11:06:42;;;;;;;0.53;0.27;;;;;;;25.45;37.21;102032.28;4920100;29;20051;-49
2023/05/19 11:09:07;;;;;;;0.20;0.20;;;;;;;25.41;37.24;102021.31;4954092;29;20039;-50
2023/05/19 11:12:09;;;;;;;0.10;0.10;;;;;;;25.45;37.76;102035.03;4953282;29;20043;-52
2023/05/19 11:14:35;;;;;;;0.40;0.40;;;;;;;25.50;35.51;102024.28;4922785;29;20084;-52
2023/05/19 11:17:01;;;;;;;1.02;0.45;;;;;;;25.67;35.15;102019.59;4922589;29;20575;-52
2023/05/19 11:19:27;;;;;;;1.50;0.17;;;;;;;25.68;34.39;102018.41;4913423;29;20399;-57
2023/05/19 11:22:13;;;;;;;0.30;0.30;;;;;;;25.67;34.49;102025.91;4915797;29;20051;-55
2023/05/19 11:24:49;;;;;;;1.73;1.05;;;;;;;25.61;35.79;102021.31;4856787;29;20182;-54
2023/05/19 11:27:31;;;;;;;0.80;0.17;;;;;;;25.66;37.26;102013.31;4853861;29;20057;-58
2023/05/19 11:30:18;;;;;;;0.95;0.30;;;;;;;25.85;37.13;102008.97;4855676;29;20045;-57
2023/05/19 11:32:47;;;;;;;0.60;0.20;;;;;;;26.09;36.45;102009.69;4840422;29;20412;-51
2023/05/19 11:35:13;;;;;;;0.40;0.22;;;;;;;26.16;35.55;102007.56;4852583;29;20041;-49